createdAt,value
2022-11-28T00:13:51.862Z,86.30
2022-11-28T00:16:26.696Z,86.82
2022-11-28T00:19:01.327Z,86.85
2022-11-28T00:21:33.676Z,87.32
2022-11-28T00:24:04.041Z,86.75
2022-11-28T00:26:37.844Z,87.59
2022-11-28T00:29:09.120Z,88.28
2022-11-28T00:31:44.433Z,87.84
2022-11-28T00:34:14.401Z,88.14
2022-11-28T00:36:42.999Z,88.45
2022-11-28T00:39:09.979Z,87.75
2022-11-28T00:41:37.408Z,88.01
2022-11-28T00:44:04.601Z,87.50
2022-11-28T00:46:33.862Z,86.71
2022-11-28T00:49:00.922Z,87.33
2022-11-28T00:51:36.105Z,87.98
2022-11-28T00:54:12.083Z,88.21
2022-11-28T00:56:40.701Z,88.06
2022-11-28T00:59:08.058Z,87.74
2022-11-28T01:01:40.768Z,87.69
2022-11-28T01:04:10.732Z,87.55
2022-11-28T01:06:40.826Z,87.15
2022-11-28T01:09:22.320Z,87.10
2022-11-28T01:11:50.782Z,87.68
2022-11-28T01:14:20.034Z,87.53
2022-11-28T01:16:47.317Z,87.52
2022-11-28T01:19:14.366Z,88.21
2022-11-28T01:21:41.739Z,88.52
2022-11-28T01:24:09.444Z,88.24
2022-11-28T01:26:39.260Z,87.88
2022-11-28T01:29:07.087Z,88.19
2022-11-28T01:31:34.276Z,88.32
2022-11-28T01:34:01.239Z,88.28
2022-11-28T01:36:28.417Z,88.49
2022-11-28T01:38:55.697Z,88.47
2022-11-28T01:41:25.669Z,88.30
2022-11-28T01:44:03.644Z,88.79
2022-11-28T01:46:31.063Z,88.72
2022-11-28T01:49:03.405Z,88.32
2022-11-28T01:51:31.384Z,88.19
2022-11-28T01:53:59.765Z,88.83
2022-11-28T01:56:31.970Z,89.18
2022-11-28T01:59:06.319Z,89.23
2022-11-28T02:01:43.798Z,88.86
2022-11-28T02:04:16.563Z,88.57
2022-11-28T02:06:46.120Z,88.46
2022-11-28T02:09:15.163Z,89.10
2022-11-28T02:12:14.105Z,89.49
2022-11-28T02:14:59.292Z,89.21
2022-11-28T02:18:03.372Z,89.12
2022-11-28T02:21:08.533Z,88.93
2022-11-28T02:23:58.519Z,89.39
2022-11-28T02:26:49.955Z,89.02
2022-11-28T02:29:51.409Z,89.09
2022-11-28T02:33:02.754Z,89.17
2022-11-28T02:35:43.947Z,89.31
2022-11-28T02:38:15.489Z,89.09
2022-11-28T02:41:03.916Z,89.23
2022-11-28T02:43:49.774Z,89.16
2022-11-28T02:46:28.582Z,89.16
2022-11-28T02:49:08.355Z,88.82
2022-11-28T02:51:50.002Z,88.93
2022-11-28T02:54:18.748Z,88.84
2022-11-28T02:56:49.800Z,88.08
2022-11-28T02:59:39.742Z,88.36
2022-11-28T03:02:15.309Z,88.02
2022-11-28T03:05:18.933Z,88.29
2022-11-28T03:08:12.912Z,88.40
2022-11-28T03:10:49.894Z,88.17
2022-11-28T03:13:39.264Z,88.07
2022-11-28T03:16:24.254Z,88.03
2022-11-28T03:18:50.955Z,87.95
2022-11-28T03:21:27.101Z,87.31
2022-11-28T03:24:01.177Z,86.06
2022-11-28T03:26:43.107Z,85.76
2022-11-28T03:29:18.804Z,85.43
2022-11-28T03:31:55.816Z,85.23
2022-11-28T03:34:27.012Z,85.37
2022-11-28T03:37:09.770Z,86.42
2022-11-28T03:39:41.196Z,86.55
2022-11-28T03:42:16.605Z,86.26
2022-11-28T03:44:58.786Z,85.99
2022-11-28T03:47:31.191Z,86.10
2022-11-28T03:50:07.720Z,85.71
2022-11-28T03:52:44.604Z,85.80
2022-11-28T03:55:23.504Z,86.84
2022-11-28T03:58:21.634Z,87.64
2022-11-28T04:01:03.463Z,87.54
2022-11-28T04:03:41.402Z,87.77
2022-11-28T04:06:24.112Z,87.70
2022-11-28T04:09:03.035Z,87.64
2022-11-28T04:11:45.223Z,87.26
2022-11-28T04:14:32.560Z,87.12
2022-11-28T04:17:19.451Z,87.27
2022-11-28T04:19:54.542Z,87.17
2022-11-28T04:22:48.775Z,87.28
2022-11-28T04:25:19.931Z,87.30
2022-11-28T04:28:04.798Z,87.27
2022-11-28T04:30:33.028Z,87.39
2022-11-28T04:33:07.540Z,87.33
2022-11-28T04:35:39.934Z,87.20
2022-11-28T04:38:09.615Z,87.28
2022-11-28T04:40:43.669Z,86.76
2022-11-28T04:43:27.062Z,87.49
2022-11-28T04:46:03.956Z,89.83
2022-11-28T04:48:34.393Z,91.01
2022-11-28T04:51:19.822Z,91.38
2022-11-28T04:54:00.552Z,91.42
2022-11-28T04:56:34.674Z,91.44
2022-11-28T04:59:04.554Z,91.55
2022-11-28T05:01:33.914Z,91.98
2022-11-28T05:04:03.585Z,91.60
2022-11-28T05:06:35.094Z,92.13
2022-11-28T05:09:02.449Z,91.72
2022-11-28T05:11:29.753Z,91.67
2022-11-28T05:13:56.836Z,91.48
2022-11-28T05:16:26.273Z,90.61
2022-11-28T05:18:53.205Z,90.32
2022-11-28T05:21:22.976Z,90.01
2022-11-28T05:23:49.997Z,89.99
2022-11-28T05:26:22.007Z,90.72
2022-11-28T05:28:51.244Z,90.74
2022-11-28T05:31:24.911Z,90.83
2022-11-28T05:33:53.214Z,91.01
2022-11-28T05:36:20.182Z,90.14
2022-11-28T05:38:51.718Z,89.81
2022-11-28T05:41:27.877Z,89.81
2022-11-28T05:43:56.302Z,89.34
2022-11-28T05:46:34.061Z,89.03
2022-11-28T05:49:01.077Z,88.70
2022-11-28T05:51:28.035Z,88.47
2022-11-28T05:53:54.732Z,88.47
2022-11-28T05:56:22.165Z,88.43
2022-11-28T05:58:49.283Z,88.03
2022-11-28T06:01:19.337Z,88.39
2022-11-28T06:03:47.269Z,88.61
2022-11-28T06:06:21.702Z,88.61
2022-11-28T06:08:50.557Z,88.81
2022-11-28T06:11:17.323Z,88.83
2022-11-28T06:13:45.224Z,88.69
2022-11-28T06:16:18.581Z,88.72
2022-11-28T06:18:48.488Z,88.88
2022-11-28T06:21:15.882Z,88.71
2022-11-28T06:23:42.781Z,89.21
2022-11-28T06:26:15.269Z,89.12
2022-11-28T06:28:42.479Z,89.32
2022-11-28T06:31:14.933Z,89.17
2022-11-28T06:33:42.324Z,89.08
2022-11-28T06:36:10.481Z,88.96
2022-11-28T06:38:37.556Z,88.52
2022-11-28T06:41:07.160Z,88.60
2022-11-28T06:43:34.289Z,88.60
2022-11-28T06:46:01.314Z,88.57
2022-11-28T06:48:28.869Z,88.57
2022-11-28T06:51:03.849Z,88.73
2022-11-28T06:53:31.728Z,88.92
2022-11-28T06:55:58.916Z,89.21
2022-11-28T06:58:25.610Z,89.13
2022-11-28T07:00:52.703Z,88.81
2022-11-28T07:03:19.484Z,88.82
2022-11-28T07:05:46.295Z,88.58
2022-11-28T07:08:13.165Z,88.57
2022-11-28T07:10:39.901Z,88.18
2022-11-28T07:13:06.742Z,88.11
2022-11-28T07:15:33.661Z,88.32
2022-11-28T07:18:00.954Z,88.67
2022-11-28T07:20:27.593Z,88.29
2022-11-28T07:22:54.733Z,87.01
2022-11-28T07:25:21.439Z,86.20
2022-11-28T07:27:48.139Z,86.29
2022-11-28T07:30:15.173Z,86.48
2022-11-28T07:32:42.103Z,87.53
2022-11-28T07:35:09.112Z,88.47
2022-11-28T07:37:36.508Z,87.96
2022-11-28T07:40:04.559Z,88.15
2022-11-28T07:42:31.331Z,86.97
2022-11-28T07:44:58.422Z,86.39
2022-11-28T07:47:25.198Z,86.52
2022-11-28T07:49:52.088Z,85.91
2022-11-28T07:52:18.879Z,86.32
2022-11-28T07:54:45.842Z,86.72
2022-11-28T07:57:13.464Z,85.85
2022-11-28T07:59:40.860Z,85.46
2022-11-28T08:02:10.347Z,85.10
2022-11-28T08:04:40.450Z,86.83
2022-11-28T08:07:13.886Z,87.12
2022-11-28T08:09:40.944Z,86.08
2022-11-28T08:12:08.421Z,86.50
2022-11-28T08:14:35.642Z,84.79
2022-11-28T08:17:02.439Z,85.54
2022-11-28T08:19:33.782Z,85.23
2022-11-28T08:22:02.375Z,85.75
2022-11-28T08:24:29.078Z,85.95
2022-11-28T08:26:55.879Z,85.77
2022-11-28T08:29:22.833Z,83.33
2022-11-28T08:31:49.503Z,81.49
2022-11-28T08:34:16.307Z,81.22
2022-11-28T08:36:43.550Z,81.53
2022-11-28T08:39:26.513Z,79.47
2022-11-28T08:41:57.551Z,80.38
2022-11-28T08:44:24.766Z,79.21
2022-11-28T08:46:51.723Z,80.13
2022-11-28T08:49:18.631Z,80.46
2022-11-28T08:51:45.442Z,80.09
2022-11-28T08:54:12.192Z,78.35
2022-11-28T08:56:39.116Z,77.50
2022-11-28T08:59:05.944Z,76.55
2022-11-28T09:01:32.884Z,76.71
2022-11-28T09:04:00.144Z,78.06
2022-11-28T09:06:26.901Z,79.66
2022-11-28T09:08:53.765Z,77.68
2022-11-28T09:11:22.803Z,74.68
2022-11-28T09:13:50.335Z,73.59
2022-11-28T09:16:18.072Z,74.19
2022-11-28T09:18:45.063Z,74.03
2022-11-28T09:21:13.962Z,72.08
2022-11-28T09:23:42.354Z,71.93
2022-11-28T09:26:15.509Z,70.59
2022-11-28T09:28:42.526Z,69.86
2022-11-28T09:31:09.843Z,68.46
2022-11-28T09:33:36.757Z,66.26
2022-11-28T09:36:09.026Z,66.29
2022-11-28T09:38:36.536Z,65.72
2022-11-28T09:41:04.448Z,65.33
2022-11-28T09:43:34.300Z,66.62
2022-11-28T09:46:04.745Z,67.33
2022-11-28T09:48:38.437Z,66.39
2022-11-28T09:51:31.529Z,64.40
2022-11-28T09:54:12.778Z,64.84
2022-11-28T09:56:39.695Z,64.88
2022-11-28T09:59:19.669Z,65.88
2022-11-28T10:02:16.803Z,67.97
2022-11-28T10:05:31.661Z,66.79
2022-11-28T10:08:05.165Z,66.79
2022-11-28T10:11:01.191Z,66.56
2022-11-28T10:13:41.138Z,65.72
2022-11-28T10:16:32.653Z,66.46
2022-11-28T10:19:20.379Z,67.42
2022-11-28T10:21:59.532Z,64.42
2022-11-28T10:24:37.650Z,66.80
2022-11-28T10:27:06.132Z,68.78
2022-11-28T10:29:50.918Z,66.96
2022-11-28T10:32:21.545Z,64.76
2022-11-28T10:34:59.090Z,65.54
2022-11-28T10:37:27.975Z,66.23
2022-11-28T10:39:55.890Z,65.65
2022-11-28T10:43:04.626Z,67.18
2022-11-28T10:45:49.691Z,68.29
2022-11-28T10:48:44.089Z,69.79
2022-11-28T10:51:46.055Z,69.86
2022-11-28T10:54:18.921Z,69.80
2022-11-28T10:56:51.299Z,69.31
2022-11-28T10:59:44.251Z,69.77
2022-11-28T11:02:37.996Z,69.92
2022-11-28T11:05:07.214Z,69.68
2022-11-28T11:07:34.474Z,69.53
2022-11-28T11:10:23.588Z,70.72
2022-11-28T11:12:51.953Z,70.09
2022-11-28T11:15:34.309Z,70.76
2022-11-28T11:18:06.257Z,70.83
2022-11-28T11:20:37.463Z,70.44
2022-11-28T11:23:21.863Z,70.28
2022-11-28T11:25:56.888Z,71.15
2022-11-28T11:28:29.288Z,71.01
2022-11-28T11:31:01.509Z,70.60
2022-11-28T11:33:37.183Z,70.95
2022-11-28T11:39:39.992Z,71.39
2022-11-28T11:45:40.307Z,71.35
2022-11-28T11:55:20.889Z,71.44
2022-11-28T11:58:09.626Z,72.07
2022-11-28T12:00:50.920Z,72.09
2022-11-28T12:03:49.818Z,70.85
2022-11-28T12:12:39.308Z,70.65
2022-11-28T12:18:49.386Z,70.04
2022-11-28T12:21:50.768Z,70.09
2022-11-28T12:24:25.427Z,69.93
2022-11-28T12:27:12.395Z,70.20
2022-11-28T12:30:02.489Z,69.98
2022-11-28T12:32:53.068Z,71.42
2022-11-28T12:35:29.540Z,71.08
2022-11-28T12:38:12.544Z,71.61
2022-11-28T12:41:06.891Z,70.89
2022-11-28T12:43:48.348Z,72.34
2022-11-28T12:46:39.026Z,72.01
2022-11-28T12:49:20.454Z,70.89
2022-11-28T12:52:03.157Z,70.92
2022-11-28T12:54:46.446Z,70.44
2022-11-28T12:57:23.071Z,71.37
2022-11-28T13:00:05.217Z,71.83
2022-11-28T13:02:42.807Z,72.41
2022-11-28T13:05:52.092Z,70.82
2022-11-28T13:08:49.077Z,71.21
2022-11-28T13:11:37.742Z,72.13
2022-11-28T13:14:21.304Z,71.45
2022-11-28T13:16:56.268Z,72.85
2022-11-28T13:20:11.414Z,72.75
2022-11-28T13:23:09.110Z,72.92
2022-11-28T13:25:41.975Z,73.59
2022-11-28T13:28:41.654Z,73.64
2022-11-28T13:31:28.617Z,73.91
2022-11-28T13:33:56.851Z,74.36
2022-11-28T13:39:57.559Z,73.74
2022-11-28T13:43:02.148Z,73.19
2022-11-28T13:45:36.773Z,74.04
2022-11-28T13:49:12.371Z,73.85
2022-11-28T13:51:30.999Z,73.50
2022-11-28T13:54:28.532Z,73.45
2022-11-28T13:57:10.298Z,73.90
2022-11-28T13:59:38.793Z,72.65
2022-11-28T14:02:22.775Z,73.83
2022-11-28T14:04:50.465Z,73.39
2022-11-28T14:11:36.071Z,73.25
2022-11-28T14:14:21.194Z,73.76
2022-11-28T14:16:52.156Z,74.24
2022-11-28T14:19:31.187Z,74.09
2022-11-28T14:22:16.044Z,74.20
2022-11-28T14:24:54.440Z,74.65
2022-11-28T14:27:29.657Z,73.83
2022-11-28T14:30:03.115Z,74.42
2022-11-28T14:32:41.977Z,74.21
2022-11-28T14:35:59.459Z,73.58
2022-11-28T14:41:38.096Z,72.97
2022-11-28T14:44:42.130Z,74.19
2022-11-28T14:47:28.318Z,73.74
2022-11-28T14:50:07.442Z,73.61
2022-11-28T14:52:40.552Z,74.39
2022-11-28T14:55:10.754Z,75.06
2022-11-28T14:57:58.771Z,75.25
2022-11-28T15:00:33.407Z,74.99
2022-11-28T15:03:18.551Z,75.41
2022-11-28T15:07:10.738Z,75.19
2022-11-28T15:09:15.719Z,74.70
2022-11-28T15:12:15.736Z,74.78
2022-11-28T15:17:40.654Z,73.80
2022-11-28T15:20:55.730Z,74.95
2022-11-28T15:23:33.038Z,75.02
2022-11-28T15:27:43.135Z,74.29
2022-11-28T15:29:20.209Z,75.21
2022-11-28T15:31:59.194Z,75.57
2022-11-28T15:34:36.005Z,76.40
2022-11-28T15:37:36.890Z,77.31
2022-11-28T15:40:05.137Z,77.56
2022-11-28T15:42:35.142Z,77.31
2022-11-28T15:45:23.641Z,77.83
2022-11-28T15:47:57.262Z,77.76
2022-11-28T15:55:25.823Z,78.39
2022-11-28T16:01:15.554Z,78.91
2022-11-28T16:04:20.233Z,79.49
2022-11-28T16:07:07.434Z,78.92
2022-11-28T16:09:40.634Z,79.42
2022-11-28T16:12:22.928Z,79.37
2022-11-28T16:14:50.687Z,79.32
2022-11-28T16:17:26.074Z,79.36
2022-11-28T16:19:58.865Z,79.40
2022-11-28T16:22:34.096Z,79.47
2022-11-28T16:25:20.966Z,79.81
2022-11-28T16:28:28.630Z,79.39
2022-11-28T16:30:56.468Z,78.55
2022-11-28T16:33:43.857Z,77.47
2022-11-28T16:36:26.498Z,76.37
2022-11-28T16:39:13.851Z,75.56
2022-11-28T16:42:03.591Z,76.21
2022-11-28T16:44:40.238Z,76.04
2022-11-28T16:47:23.050Z,75.69
2022-11-28T16:50:17.957Z,76.34
2022-11-28T16:52:47.239Z,76.30
2022-11-28T16:55:32.786Z,76.23
2022-11-28T16:58:29.220Z,75.76
2022-11-28T17:01:01.841Z,76.19
2022-11-28T17:03:52.109Z,76.42
2022-11-28T17:06:39.631Z,76.76
2022-11-28T17:09:11.433Z,76.67
2022-11-28T17:11:45.166Z,76.94
2022-11-28T17:14:14.078Z,78.00
2022-11-28T17:16:59.810Z,78.29
2022-11-28T17:19:27.444Z,78.51
2022-11-28T17:21:58.150Z,78.22
2022-11-28T17:24:33.375Z,77.91
2022-11-28T17:27:00.650Z,78.57
2022-11-28T17:29:27.603Z,78.43
2022-11-28T17:31:54.769Z,78.54
2022-11-28T17:34:27.380Z,78.78
2022-11-28T17:36:55.460Z,78.46
2022-11-28T17:39:23.766Z,79.00
2022-11-28T17:42:33.224Z,79.22
2022-11-28T17:45:29.573Z,79.43
2022-11-28T17:47:56.946Z,78.80
2022-11-28T17:53:20.240Z,79.02
2022-11-28T17:55:54.617Z,79.07
2022-11-28T17:58:34.508Z,79.35
2022-11-28T18:01:16.141Z,79.07
2022-11-28T18:11:04.783Z,78.80
2022-11-28T18:14:03.095Z,78.74
2022-11-28T18:16:34.207Z,78.75
2022-11-28T18:19:07.587Z,78.49
2022-11-28T18:25:08.167Z,78.18
2022-11-28T18:27:50.451Z,78.03
2022-11-28T18:30:27.562Z,77.41
2022-11-28T18:33:05.400Z,77.60
2022-11-28T18:36:00.131Z,77.54
2022-11-28T18:47:41.532Z,76.75
2022-11-28T18:51:35.819Z,76.79
2022-11-28T18:56:28.165Z,77.32
2022-11-28T19:02:40.271Z,78.25
2022-11-28T19:08:54.095Z,78.23
2022-11-28T19:11:03.059Z,78.62
2022-11-28T19:13:50.331Z,79.00
2022-11-28T19:17:48.410Z,79.26
2022-11-28T19:21:28.989Z,79.69
2022-11-28T19:23:20.951Z,79.37
2022-11-28T19:25:47.959Z,78.85
2022-11-28T19:28:19.099Z,78.94
2022-11-28T19:33:40.441Z,79.24
2022-11-28T19:36:15.252Z,79.14
2022-11-28T19:38:45.722Z,79.11
2022-11-28T19:41:21.070Z,79.50
2022-11-28T19:43:51.852Z,79.39
2022-11-28T19:46:19.375Z,79.48
2022-11-28T19:48:50.157Z,79.08
2022-11-28T20:03:57.697Z,78.36
2022-11-28T20:06:32.035Z,78.24
2022-11-28T20:11:59.096Z,78.36
2022-11-28T20:14:26.337Z,78.16
2022-11-28T20:17:11.490Z,78.14
2022-11-28T20:20:05.956Z,78.14
2022-11-28T20:22:40.814Z,77.84
2022-11-28T20:25:21.013Z,77.42
2022-11-28T20:27:48.274Z,77.23
2022-11-28T20:30:20.976Z,76.82
2022-11-28T20:33:37.965Z,77.42
2022-11-28T20:35:52.395Z,77.33
2022-11-28T20:38:25.373Z,77.50
2022-11-28T20:41:24.653Z,77.08
2022-11-28T20:44:09.806Z,77.41
2022-11-28T20:46:45.256Z,76.54
2022-11-28T20:49:26.689Z,76.15
2022-11-28T20:54:45.917Z,77.18
2022-11-28T20:57:22.629Z,77.09
2022-11-28T20:59:51.516Z,77.41
2022-11-28T21:02:50.493Z,77.84
2022-11-28T21:05:18.051Z,77.12
2022-11-28T21:07:55.473Z,76.72
2022-11-28T21:10:26.134Z,77.04
2022-11-28T21:12:56.697Z,76.46
2022-11-28T21:15:29.213Z,75.92
2022-11-28T21:21:15.334Z,75.39
2022-11-28T21:23:43.554Z,76.15
2022-11-28T21:32:56.646Z,77.06
2022-11-28T21:35:13.314Z,77.20
2022-11-28T21:37:40.318Z,76.92
2022-11-28T21:40:21.293Z,77.09
2022-11-28T21:43:00.400Z,76.79
2022-11-28T21:45:43.997Z,76.00
2022-11-28T21:48:13.637Z,76.55
2022-11-28T21:51:28.603Z,76.40
2022-11-28T21:57:40.870Z,76.42
2022-11-28T21:59:50.334Z,76.88
2022-11-28T22:04:13.278Z,76.97
2022-11-28T22:05:43.551Z,76.35
2022-11-28T22:11:57.146Z,75.92
2022-11-28T22:15:10.236Z,75.62
2022-11-28T22:29:51.899Z,75.03
2022-11-28T22:52:35.510Z,75.99
2022-11-28T22:55:11.903Z,76.46
2022-11-28T22:57:51.328Z,76.14
2022-11-28T23:00:28.740Z,76.44
2022-11-28T23:03:21.239Z,76.09
2022-11-28T23:06:12.834Z,76.43
2022-11-28T23:08:52.963Z,75.96
2022-11-28T23:11:31.616Z,76.65
2022-11-28T23:20:25.435Z,77.34
2022-11-28T23:23:26.958Z,77.14
2022-11-28T23:25:39.729Z,76.69
2022-11-28T23:28:23.155Z,76.47
2022-11-28T23:31:20.650Z,77.07
2022-11-28T23:33:56.076Z,76.48
2022-11-28T23:39:42.993Z,77.11
2022-11-28T23:42:37.299Z,76.67
2022-11-28T23:45:49.210Z,77.01
2022-11-28T23:48:17.855Z,77.38
2022-11-28T23:51:29.632Z,76.81
2022-11-28T23:53:53.834Z,76.96
2022-11-28T23:56:38.295Z,76.95
